Terminal Aerodrome Forecast
Issued by NWS

Home | Current Version | Previous Version | Graphics & Text | Print | Product List | Glossary On
Versions: 1 2 3 4 5 6 7 8 9 10 11 12 13 14 15 16 17
000
FTUS41 KCLE 151700
TAFFDY
TAF
KFDY 151734Z 1518/1618 07015G25KT P6SM BKN200
     FM160100 07010KT P6SM OVC200
     FM161000 12010KT P6SM BKN050 OVC100
      TEMPO 1613/1617 -SHRA OVC050
     FM161700 17010G20KT P6SM VCSH BKN030 OVC080=

USA.gov is the U.S. government's official web portal to all federal, state and local government web resources and services.